sensor_id;sensor_type;location;lat;lon;timestamp;P1;durP1;ratioP1;P2;durP2;ratioP2
20709;SDS011;10516;51.518;9.864;2022-08-01T00:00:33;2.40;;;2.20;;
20709;SDS011;10516;51.518;9.864;2022-08-01T00:02:58;2.63;;;2.42;;
20709;SDS011;10516;51.518;9.864;2022-08-01T00:05:24;2.42;;;2.20;;
20709;SDS011;10516;51.518;9.864;2022-08-01T00:07:49;2.33;;;2.13;;
20709;SDS011;10516;51.518;9.864;2022-08-01T00:10:15;2.50;;;2.30;;
20709;SDS011;10516;51.518;9.864;2022-08-01T00:12:41;3.00;;;2.60;;
20709;SDS011;10516;51.518;9.864;2022-08-01T00:15:08;3.78;;;2.88;;
20709;SDS011;10516;51.518;9.864;2022-08-01T00:17:35;2.97;;;2.63;;
20709;SDS011;10516;51.518;9.864;2022-08-01T00:20:02;4.65;;;4.25;;
20709;SDS011;10516;51.518;9.864;2022-08-01T00:22:30;3.15;;;2.15;;
20709;SDS011;10516;51.518;9.864;2022-08-01T00:24:56;2.83;;;2.60;;
20709;SDS011;10516;51.518;9.864;2022-08-01T00:27:22;5.25;;;3.53;;
20709;SDS011;10516;51.518;9.864;2022-08-01T00:29:47;3.28;;;2.60;;
20709;SDS011;10516;51.518;9.864;2022-08-01T00:32:12;4.93;;;3.70;;
20709;SDS011;10516;51.518;9.864;2022-08-01T00:34:38;3.08;;;2.78;;
20709;SDS011;10516;51.518;9.864;2022-08-01T00:37:03;4.45;;;2.58;;
20709;SDS011;10516;51.518;9.864;2022-08-01T00:39:29;2.50;;;2.30;;
20709;SDS011;10516;51.518;9.864;2022-08-01T00:41:54;4.57;;;4.00;;
20709;SDS011;10516;51.518;9.864;2022-08-01T00:44:20;2.90;;;2.70;;
20709;SDS011;10516;51.518;9.864;2022-08-01T00:46:45;3.17;;;2.95;;
20709;SDS011;10516;51.518;9.864;2022-08-01T00:49:11;6.35;;;2.75;;
20709;SDS011;10516;51.518;9.864;2022-08-01T00:51:36;4.45;;;2.95;;
20709;SDS011;10516;51.518;9.864;2022-08-01T00:54:02;4.03;;;3.53;;
20709;SDS011;10516;51.518;9.864;2022-08-01T00:56:27;4.53;;;3.42;;
20709;SDS011;10516;51.518;9.864;2022-08-01T00:58:54;3.53;;;3.22;;
20709;SDS011;10516;51.518;9.864;2022-08-01T01:01:21;3.15;;;2.95;;
20709;SDS011;10516;51.518;9.864;2022-08-01T01:03:50;4.05;;;3.35;;
20709;SDS011;10516;51.518;9.864;2022-08-01T01:09:36;5.97;;;2.90;;
20709;SDS011;10516;51.518;9.864;2022-08-01T01:15:14;3.85;;;3.47;;
20709;SDS011;10516;51.518;9.864;2022-08-01T01:17:52;5.47;;;4.95;;
20709;SDS011;10516;51.518;9.864;2022-08-01T01:20:27;3.25;;;3.05;;
20709;SDS011;10516;51.518;9.864;2022-08-01T01:31:15;4.20;;;3.25;;
20709;SDS011;10516;51.518;9.864;2022-08-01T01:33:44;3.28;;;2.97;;
20709;SDS011;10516;51.518;9.864;2022-08-01T01:36:11;3.15;;;2.85;;
20709;SDS011;10516;51.518;9.864;2022-08-01T01:38:40;3.38;;;3.10;;
20709;SDS011;10516;51.518;9.864;2022-08-01T01:41:12;2.75;;;2.55;;
20709;SDS011;10516;51.518;9.864;2022-08-01T01:43:40;3.13;;;2.80;;
20709;SDS011;10516;51.518;9.864;2022-08-01T01:46:07;3.08;;;2.60;;
20709;SDS011;10516;51.518;9.864;2022-08-01T01:48:37;9.07;;;3.47;;
20709;SDS011;10516;51.518;9.864;2022-08-01T01:51:04;4.93;;;3.50;;
20709;SDS011;10516;51.518;9.864;2022-08-01T01:53:32;5.75;;;3.13;;
20709;SDS011;10516;51.518;9.864;2022-08-01T01:55:59;3.88;;;3.22;;
20709;SDS011;10516;51.518;9.864;2022-08-01T01:58:26;6.47;;;3.80;;
20709;SDS011;10516;51.518;9.864;2022-08-01T02:00:54;6.05;;;3.72;;
20709;SDS011;10516;51.518;9.864;2022-08-01T02:03:21;4.00;;;3.60;;
20709;SDS011;10516;51.518;9.864;2022-08-01T02:05:49;4.30;;;3.88;;
20709;SDS011;10516;51.518;9.864;2022-08-01T02:08:17;4.80;;;4.03;;
20709;SDS011;10516;51.518;9.864;2022-08-01T02:10:44;4.82;;;3.42;;
20709;SDS011;10516;51.518;9.864;2022-08-01T02:13:30;5.88;;;4.40;;
20709;SDS011;10516;51.518;9.864;2022-08-01T02:15:58;6.38;;;4.00;;
20709;SDS011;10516;51.518;9.864;2022-08-01T02:18:23;4.63;;;3.83;;
20709;SDS011;10516;51.518;9.864;2022-08-01T02:20:49;9.27;;;5.40;;
20709;SDS011;10516;51.518;9.864;2022-08-01T02:23:17;6.03;;;3.92;;
20709;SDS011;10516;51.518;9.864;2022-08-01T02:25:44;6.40;;;3.83;;
20709;SDS011;10516;51.518;9.864;2022-08-01T02:30:53;4.90;;;4.40;;
20709;SDS011;10516;51.518;9.864;2022-08-01T02:33:22;7.00;;;3.90;;
20709;SDS011;10516;51.518;9.864;2022-08-01T02:35:57;9.02;;;4.85;;
20709;SDS011;10516;51.518;9.864;2022-08-01T02:38:24;7.32;;;4.75;;
20709;SDS011;10516;51.518;9.864;2022-08-01T02:40:52;7.05;;;4.75;;
20709;SDS011;10516;51.518;9.864;2022-08-01T02:43:23;6.22;;;5.63;;
20709;SDS011;10516;51.518;9.864;2022-08-01T02:45:52;6.05;;;4.72;;
20709;SDS011;10516;51.518;9.864;2022-08-01T02:48:19;5.22;;;4.78;;
20709;SDS011;10516;51.518;9.864;2022-08-01T02:50:47;6.25;;;4.50;;
20709;SDS011;10516;51.518;9.864;2022-08-01T02:53:14;6.35;;;4.80;;
20709;SDS011;10516;51.518;9.864;2022-08-01T02:55:42;5.53;;;4.47;;
20709;SDS011;10516;51.518;9.864;2022-08-01T02:58:12;6.72;;;6.13;;
20709;SDS011;10516;51.518;9.864;2022-08-01T03:00:41;5.40;;;4.68;;
20709;SDS011;10516;51.518;9.864;2022-08-01T03:03:08;5.40;;;4.90;;
20709;SDS011;10516;51.518;9.864;2022-08-01T03:05:35;6.50;;;5.47;;
20709;SDS011;10516;51.518;9.864;2022-08-01T03:08:05;7.95;;;5.35;;
20709;SDS011;10516;51.518;9.864;2022-08-01T03:10:32;9.30;;;5.68;;
20709;SDS011;10516;51.518;9.864;2022-08-01T03:13:00;7.78;;;5.47;;
20709;SDS011;10516;51.518;9.864;2022-08-01T03:15:28;6.40;;;5.30;;
20709;SDS011;10516;51.518;9.864;2022-08-01T03:17:57;8.23;;;5.47;;
20709;SDS011;10516;51.518;9.864;2022-08-01T03:20:25;6.45;;;5.85;;
20709;SDS011;10516;51.518;9.864;2022-08-01T03:22:54;6.45;;;5.93;;
20709;SDS011;10516;51.518;9.864;2022-08-01T03:25:23;12.23;;;6.22;;
20709;SDS011;10516;51.518;9.864;2022-08-01T03:27:51;5.70;;;5.20;;
20709;SDS011;10516;51.518;9.864;2022-08-01T03:30:21;5.30;;;4.47;;
20709;SDS011;10516;51.518;9.864;2022-08-01T03:32:51;6.43;;;3.90;;
20709;SDS011;10516;51.518;9.864;2022-08-01T03:35:17;3.70;;;3.40;;
20709;SDS011;10516;51.518;9.864;2022-08-01T03:37:47;4.15;;;3.63;;
20709;SDS011;10516;51.518;9.864;2022-08-01T03:40:36;5.00;;;3.58;;
20709;SDS011;10516;51.518;9.864;2022-08-01T03:43:12;3.65;;;3.35;;
20709;SDS011;10516;51.518;9.864;2022-08-01T03:45:50;4.10;;;3.35;;
20709;SDS011;10516;51.518;9.864;2022-08-01T03:48:19;4.80;;;3.40;;
20709;SDS011;10516;51.518;9.864;2022-08-01T03:50:48;3.80;;;3.38;;
20709;SDS011;10516;51.518;9.864;2022-08-01T03:53:16;3.88;;;3.35;;
20709;SDS011;10516;51.518;9.864;2022-08-01T03:55:47;5.13;;;3.13;;
20709;SDS011;10516;51.518;9.864;2022-08-01T03:58:14;5.13;;;3.33;;
20709;SDS011;10516;51.518;9.864;2022-08-01T04:00:40;3.75;;;3.33;;
20709;SDS011;10516;51.518;9.864;2022-08-01T04:03:07;3.83;;;3.50;;
20709;SDS011;10516;51.518;9.864;2022-08-01T04:05:33;4.68;;;3.63;;
20709;SDS011;10516;51.518;9.864;2022-08-01T04:08:00;5.50;;;3.08;;
20709;SDS011;10516;51.518;9.864;2022-08-01T04:10:27;3.35;;;3.05;;
20709;SDS011;10516;51.518;9.864;2022-08-01T04:12:52;3.85;;;3.30;;
20709;SDS011;10516;51.518;9.864;2022-08-01T04:15:18;5.22;;;4.10;;
20709;SDS011;10516;51.518;9.864;2022-08-01T04:17:45;3.88;;;2.97;;
20709;SDS011;10516;51.518;9.864;2022-08-01T04:20:11;4.72;;;3.42;;
20709;SDS011;10516;51.518;9.864;2022-08-01T04:22:38;6.40;;;5.28;;
20709;SDS011;10516;51.518;9.864;2022-08-01T04:25:04;6.63;;;4.97;;
20709;SDS011;10516;51.518;9.864;2022-08-01T04:27:36;6.53;;;5.05;;
20709;SDS011;10516;51.518;9.864;2022-08-01T04:30:05;5.40;;;3.78;;
20709;SDS011;10516;51.518;9.864;2022-08-01T04:32:33;8.05;;;5.22;;
20709;SDS011;10516;51.518;9.864;2022-08-01T04:35:01;3.88;;;3.58;;
20709;SDS011;10516;51.518;9.864;2022-08-01T04:37:29;5.20;;;4.22;;
20709;SDS011;10516;51.518;9.864;2022-08-01T04:39:56;4.03;;;3.67;;
20709;SDS011;10516;51.518;9.864;2022-08-01T04:42:24;6.03;;;4.15;;
20709;SDS011;10516;51.518;9.864;2022-08-01T04:44:49;4.25;;;3.55;;
20709;SDS011;10516;51.518;9.864;2022-08-01T04:47:15;7.60;;;4.60;;
20709;SDS011;10516;51.518;9.864;2022-08-01T04:49:41;4.63;;;4.22;;
20709;SDS011;10516;51.518;9.864;2022-08-01T04:52:08;4.97;;;3.58;;
20709;SDS011;10516;51.518;9.864;2022-08-01T04:54:34;8.50;;;5.25;;
20709;SDS011;10516;51.518;9.864;2022-08-01T04:57:05;4.30;;;3.30;;
20709;SDS011;10516;51.518;9.864;2022-08-01T04:59:31;5.25;;;4.30;;
20709;SDS011;10516;51.518;9.864;2022-08-01T05:02:14;5.40;;;3.88;;
20709;SDS011;10516;51.518;9.864;2022-08-01T05:04:41;5.07;;;3.53;;
20709;SDS011;10516;51.518;9.864;2022-08-01T05:07:07;3.95;;;3.55;;
20709;SDS011;10516;51.518;9.864;2022-08-01T05:09:34;6.13;;;4.68;;
20709;SDS011;10516;51.518;9.864;2022-08-01T05:12:01;4.20;;;3.58;;
20709;SDS011;10516;51.518;9.864;2022-08-01T05:14:28;4.40;;;3.58;;
20709;SDS011;10516;51.518;9.864;2022-08-01T05:16:56;3.50;;;3.10;;
20709;SDS011;10516;51.518;9.864;2022-08-01T05:19:28;3.33;;;2.50;;
20709;SDS011;10516;51.518;9.864;2022-08-01T05:21:56;3.72;;;3.42;;
20709;SDS011;10516;51.518;9.864;2022-08-01T05:24:22;3.60;;;2.92;;
20709;SDS011;10516;51.518;9.864;2022-08-01T05:26:48;2.72;;;2.38;;
20709;SDS011;10516;51.518;9.864;2022-08-01T05:29:14;2.63;;;2.42;;
20709;SDS011;10516;51.518;9.864;2022-08-01T05:31:40;2.78;;;2.58;;
20709;SDS011;10516;51.518;9.864;2022-08-01T05:34:05;4.38;;;2.67;;
20709;SDS011;10516;51.518;9.864;2022-08-01T05:36:31;3.45;;;3.05;;
20709;SDS011;10516;51.518;9.864;2022-08-01T05:38:56;6.25;;;3.25;;
20709;SDS011;10516;51.518;9.864;2022-08-01T05:41:22;3.53;;;3.20;;
20709;SDS011;10516;51.518;9.864;2022-08-01T05:43:47;4.72;;;3.00;;
20709;SDS011;10516;51.518;9.864;2022-08-01T05:46:13;3.28;;;2.00;;
20709;SDS011;10516;51.518;9.864;2022-08-01T05:48:38;4.55;;;2.22;;
20709;SDS011;10516;51.518;9.864;2022-08-01T05:51:04;3.92;;;2.63;;
20709;SDS011;10516;51.518;9.864;2022-08-01T05:53:30;2.30;;;2.10;;
20709;SDS011;10516;51.518;9.864;2022-08-01T05:55:59;3.92;;;2.67;;
20709;SDS011;10516;51.518;9.864;2022-08-01T05:58:25;2.50;;;2.17;;
20709;SDS011;10516;51.518;9.864;2022-08-01T06:00:50;3.47;;;2.63;;
20709;SDS011;10516;51.518;9.864;2022-08-01T06:03:16;3.95;;;2.70;;
20709;SDS011;10516;51.518;9.864;2022-08-01T06:05:41;3.22;;;2.80;;
20709;SDS011;10516;51.518;9.864;2022-08-01T06:08:06;1.85;;;1.75;;
20709;SDS011;10516;51.518;9.864;2022-08-01T06:10:32;2.42;;;2.00;;
20709;SDS011;10516;51.518;9.864;2022-08-01T06:12:57;2.40;;;2.20;;
20709;SDS011;10516;51.518;9.864;2022-08-01T06:15:23;2.92;;;2.35;;
20709;SDS011;10516;51.518;9.864;2022-08-01T06:17:48;5.85;;;2.08;;
20709;SDS011;10516;51.518;9.864;2022-08-01T06:20:14;2.42;;;2.22;;
20709;SDS011;10516;51.518;9.864;2022-08-01T06:22:39;2.00;;;1.90;;
20709;SDS011;10516;51.518;9.864;2022-08-01T06:25:05;2.53;;;2.30;;
20709;SDS011;10516;51.518;9.864;2022-08-01T06:27:33;3.97;;;2.08;;
20709;SDS011;10516;51.518;9.864;2022-08-01T06:29:59;2.60;;;2.40;;
20709;SDS011;10516;51.518;9.864;2022-08-01T06:32:24;1.90;;;1.80;;
20709;SDS011;10516;51.518;9.864;2022-08-01T06:34:51;3.05;;;1.90;;
20709;SDS011;10516;51.518;9.864;2022-08-01T06:37:16;2.35;;;2.15;;
20709;SDS011;10516;51.518;9.864;2022-08-01T06:39:42;2.50;;;2.30;;
20709;SDS011;10516;51.518;9.864;2022-08-01T06:42:07;2.72;;;2.10;;
20709;SDS011;10516;51.518;9.864;2022-08-01T06:44:34;1.90;;;1.77;;
20709;SDS011;10516;51.518;9.864;2022-08-01T06:46:59;2.30;;;2.05;;
20709;SDS011;10516;51.518;9.864;2022-08-01T06:49:25;2.00;;;1.90;;
20709;SDS011;10516;51.518;9.864;2022-08-01T06:51:50;2.65;;;1.80;;
20709;SDS011;10516;51.518;9.864;2022-08-01T06:54:16;2.05;;;1.80;;
20709;SDS011;10516;51.518;9.864;2022-08-01T06:56:41;2.00;;;1.80;;
20709;SDS011;10516;51.518;9.864;2022-08-01T06:59:07;2.88;;;1.80;;
20709;SDS011;10516;51.518;9.864;2022-08-01T07:01:33;2.95;;;1.58;;
20709;SDS011;10516;51.518;9.864;2022-08-01T07:03:58;1.77;;;1.67;;
20709;SDS011;10516;51.518;9.864;2022-08-01T07:06:24;1.88;;;1.77;;
20709;SDS011;10516;51.518;9.864;2022-08-01T07:08:50;4.00;;;2.28;;
20709;SDS011;10516;51.518;9.864;2022-08-01T07:11:20;4.20;;;1.98;;
20709;SDS011;10516;51.518;9.864;2022-08-01T07:13:46;1.65;;;1.55;;
20709;SDS011;10516;51.518;9.864;2022-08-01T07:16:12;1.88;;;1.77;;
20709;SDS011;10516;51.518;9.864;2022-08-01T07:18:40;4.53;;;2.58;;
20709;SDS011;10516;51.518;9.864;2022-08-01T07:21:05;1.70;;;1.50;;
20709;SDS011;10516;51.518;9.864;2022-08-01T07:23:31;3.95;;;1.67;;
20709;SDS011;10516;51.518;9.864;2022-08-01T07:25:56;1.80;;;1.70;;
20709;SDS011;10516;51.518;9.864;2022-08-01T07:28:22;1.58;;;1.48;;
20709;SDS011;10516;51.518;9.864;2022-08-01T07:30:48;2.67;;;2.42;;
20709;SDS011;10516;51.518;9.864;2022-08-01T07:33:13;3.70;;;2.78;;
20709;SDS011;10516;51.518;9.864;2022-08-01T07:35:39;4.38;;;2.50;;
20709;SDS011;10516;51.518;9.864;2022-08-01T07:38:05;3.90;;;2.05;;
20709;SDS011;10516;51.518;9.864;2022-08-01T07:40:31;4.90;;;2.17;;
20709;SDS011;10516;51.518;9.864;2022-08-01T07:42:57;2.13;;;1.92;;
20709;SDS011;10516;51.518;9.864;2022-08-01T07:45:22;2.83;;;2.40;;
20709;SDS011;10516;51.518;9.864;2022-08-01T07:47:48;2.55;;;2.10;;
20709;SDS011;10516;51.518;9.864;2022-08-01T07:50:15;2.22;;;1.77;;
20709;SDS011;10516;51.518;9.864;2022-08-01T07:52:41;1.67;;;1.50;;
20709;SDS011;10516;51.518;9.864;2022-08-01T07:55:08;3.53;;;2.88;;
20709;SDS011;10516;51.518;9.864;2022-08-01T07:57:34;3.28;;;2.28;;
20709;SDS011;10516;51.518;9.864;2022-08-01T08:00:00;1.60;;;1.50;;
20709;SDS011;10516;51.518;9.864;2022-08-01T08:02:26;1.85;;;1.70;;
20709;SDS011;10516;51.518;9.864;2022-08-01T08:04:51;2.00;;;1.90;;
20709;SDS011;10516;51.518;9.864;2022-08-01T08:07:16;1.98;;;1.83;;
20709;SDS011;10516;51.518;9.864;2022-08-01T08:09:42;2.13;;;1.92;;
20709;SDS011;10516;51.518;9.864;2022-08-01T08:12:07;2.55;;;1.60;;
20709;SDS011;10516;51.518;9.864;2022-08-01T08:14:33;2.00;;;1.80;;
20709;SDS011;10516;51.518;9.864;2022-08-01T08:16:58;2.13;;;1.98;;
20709;SDS011;10516;51.518;9.864;2022-08-01T08:19:24;1.73;;;1.60;;
20709;SDS011;10516;51.518;9.864;2022-08-01T08:21:50;1.83;;;1.73;;
20709;SDS011;10516;51.518;9.864;2022-08-01T08:24:15;2.25;;;1.92;;
20709;SDS011;10516;51.518;9.864;2022-08-01T08:26:48;2.15;;;1.73;;
20709;SDS011;10516;51.518;9.864;2022-08-01T08:29:14;1.80;;;1.58;;
20709;SDS011;10516;51.518;9.864;2022-08-01T08:31:40;3.70;;;1.95;;
20709;SDS011;10516;51.518;9.864;2022-08-01T08:34:06;2.13;;;1.40;;
20709;SDS011;10516;51.518;9.864;2022-08-01T08:36:31;1.98;;;1.80;;
20709;SDS011;10516;51.518;9.864;2022-08-01T08:38:57;3.38;;;1.95;;
20709;SDS011;10516;51.518;9.864;2022-08-01T08:41:27;2.80;;;1.60;;
20709;SDS011;10516;51.518;9.864;2022-08-01T08:43:53;3.75;;;1.90;;
20709;SDS011;10516;51.518;9.864;2022-08-01T08:46:21;2.10;;;2.00;;
20709;SDS011;10516;51.518;9.864;2022-08-01T08:48:48;1.75;;;1.65;;
20709;SDS011;10516;51.518;9.864;2022-08-01T08:51:14;2.28;;;1.80;;
20709;SDS011;10516;51.518;9.864;2022-08-01T08:53:42;1.58;;;1.48;;
20709;SDS011;10516;51.518;9.864;2022-08-01T08:56:14;2.40;;;2.05;;
20709;SDS011;10516;51.518;9.864;2022-08-01T08:58:40;6.90;;;2.15;;
20709;SDS011;10516;51.518;9.864;2022-08-01T09:01:08;1.65;;;1.55;;
20709;SDS011;10516;51.518;9.864;2022-08-01T09:03:35;2.30;;;2.10;;
20709;SDS011;10516;51.518;9.864;2022-08-01T09:06:01;1.70;;;1.60;;
20709;SDS011;10516;51.518;9.864;2022-08-01T09:08:27;3.40;;;1.90;;
20709;SDS011;10516;51.518;9.864;2022-08-01T09:10:53;1.70;;;1.60;;
20709;SDS011;10516;51.518;9.864;2022-08-01T09:13:18;2.05;;;1.70;;
20709;SDS011;10516;51.518;9.864;2022-08-01T09:15:51;1.70;;;1.60;;
20709;SDS011;10516;51.518;9.864;2022-08-01T09:23:45;1.40;;;1.30;;
20709;SDS011;10516;51.518;9.864;2022-08-01T09:26:29;1.80;;;1.70;;
20709;SDS011;10516;51.518;9.864;2022-08-01T09:28:58;1.52;;;1.42;;
20709;SDS011;10516;51.518;9.864;2022-08-01T09:31:25;1.67;;;1.58;;
20709;SDS011;10516;51.518;9.864;2022-08-01T09:33:53;1.92;;;1.83;;
20709;SDS011;10516;51.518;9.864;2022-08-01T09:36:26;3.00;;;1.38;;
20709;SDS011;10516;51.518;9.864;2022-08-01T09:39:17;2.42;;;1.50;;
20709;SDS011;10516;51.518;9.864;2022-08-01T09:41:44;1.55;;;1.45;;
20709;SDS011;10516;51.518;9.864;2022-08-01T09:44:10;2.47;;;1.55;;
20709;SDS011;10516;51.518;9.864;2022-08-01T09:46:35;1.77;;;1.48;;
20709;SDS011;10516;51.518;9.864;2022-08-01T09:49:02;1.63;;;1.52;;
20709;SDS011;10516;51.518;9.864;2022-08-01T09:53:54;1.10;;;0.98;;
20709;SDS011;10516;51.518;9.864;2022-08-01T09:56:21;3.83;;;1.58;;
20709;SDS011;10516;51.518;9.864;2022-08-01T09:58:57;1.30;;;1.17;;
20709;SDS011;10516;51.518;9.864;2022-08-01T10:01:24;3.30;;;1.30;;
20709;SDS011;10516;51.518;9.864;2022-08-01T10:06:35;1.77;;;1.00;;
20709;SDS011;10516;51.518;9.864;2022-08-01T10:09:05;0.90;;;0.90;;
20709;SDS011;10516;51.518;9.864;2022-08-01T10:11:34;4.10;;;0.88;;
20709;SDS011;10516;51.518;9.864;2022-08-01T10:14:04;1.00;;;1.00;;
20709;SDS011;10516;51.518;9.864;2022-08-01T10:16:30;1.90;;;1.20;;
20709;SDS011;10516;51.518;9.864;2022-08-01T10:18:59;4.38;;;1.35;;
20709;SDS011;10516;51.518;9.864;2022-08-01T10:21:26;1.45;;;0.95;;
20709;SDS011;10516;51.518;9.864;2022-08-01T10:23:52;1.27;;;0.60;;
20709;SDS011;10516;51.518;9.864;2022-08-01T10:26:20;0.90;;;0.88;;
20709;SDS011;10516;51.518;9.864;2022-08-01T10:28:50;0.65;;;0.65;;
20709;SDS011;10516;51.518;9.864;2022-08-01T10:31:16;0.60;;;0.60;;
20709;SDS011;10516;51.518;9.864;2022-08-01T10:33:43;1.40;;;0.90;;
20709;SDS011;10516;51.518;9.864;2022-08-01T10:36:09;1.13;;;1.00;;
20709;SDS011;10516;51.518;9.864;2022-08-01T10:38:35;0.55;;;0.55;;
20709;SDS011;10516;51.518;9.864;2022-08-01T10:41:02;0.60;;;0.60;;
20709;SDS011;10516;51.518;9.864;2022-08-01T10:43:28;2.20;;;0.98;;
20709;SDS011;10516;51.518;9.864;2022-08-01T10:45:54;4.10;;;1.50;;
20709;SDS011;10516;51.518;9.864;2022-08-01T10:48:22;1.02;;;1.00;;
20709;SDS011;10516;51.518;9.864;2022-08-01T10:50:55;0.90;;;0.90;;
20709;SDS011;10516;51.518;9.864;2022-08-01T10:53:26;0.95;;;0.95;;
20709;SDS011;10516;51.518;9.864;2022-08-01T10:58:34;1.35;;;1.10;;
20709;SDS011;10516;51.518;9.864;2022-08-01T11:06:53;0.73;;;0.73;;
20709;SDS011;10516;51.518;9.864;2022-08-01T11:09:38;0.73;;;0.73;;
20709;SDS011;10516;51.518;9.864;2022-08-01T11:17:33;3.97;;;0.60;;
20709;SDS011;10516;51.518;9.864;2022-08-01T11:20:06;0.98;;;0.90;;
20709;SDS011;10516;51.518;9.864;2022-08-01T11:22:35;0.60;;;0.60;;
20709;SDS011;10516;51.518;9.864;2022-08-01T11:30:42;0.63;;;0.63;;
20709;SDS011;10516;51.518;9.864;2022-08-01T11:33:12;1.13;;;1.10;;
20709;SDS011;10516;51.518;9.864;2022-08-01T11:38:37;1.92;;;1.10;;
20709;SDS011;10516;51.518;9.864;2022-08-01T11:44:07;1.20;;;1.15;;
20709;SDS011;10516;51.518;9.864;2022-08-01T11:49:33;1.83;;;1.25;;
20709;SDS011;10516;51.518;9.864;2022-08-01T11:52:23;3.65;;;1.40;;
20709;SDS011;10516;51.518;9.864;2022-08-01T11:57:19;2.15;;;1.23;;
20709;SDS011;10516;51.518;9.864;2022-08-01T11:59:55;7.75;;;1.50;;
20709;SDS011;10516;51.518;9.864;2022-08-01T12:02:25;1.60;;;1.50;;
20709;SDS011;10516;51.518;9.864;2022-08-01T12:12:25;1.23;;;1.17;;
20709;SDS011;10516;51.518;9.864;2022-08-01T12:14:53;3.70;;;1.75;;
20709;SDS011;10516;51.518;9.864;2022-08-01T12:17:20;2.28;;;1.10;;
20709;SDS011;10516;51.518;9.864;2022-08-01T12:19:52;1.30;;;1.20;;
20709;SDS011;10516;51.518;9.864;2022-08-01T12:22:17;1.10;;;1.10;;
20709;SDS011;10516;51.518;9.864;2022-08-01T12:24:47;1.45;;;1.20;;
20709;SDS011;10516;51.518;9.864;2022-08-01T12:27:13;1.42;;;1.33;;
20709;SDS011;10516;51.518;9.864;2022-08-01T12:29:49;0.93;;;0.93;;
20709;SDS011;10516;51.518;9.864;2022-08-01T12:32:34;1.70;;;0.90;;
20709;SDS011;10516;51.518;9.864;2022-08-01T12:35:05;1.20;;;1.10;;
20709;SDS011;10516;51.518;9.864;2022-08-01T12:40:13;1.05;;;1.05;;
20709;SDS011;10516;51.518;9.864;2022-08-01T12:42:43;0.90;;;0.90;;
20709;SDS011;10516;51.518;9.864;2022-08-01T12:45:18;1.40;;;1.30;;
20709;SDS011;10516;51.518;9.864;2022-08-01T12:47:46;3.55;;;1.10;;
20709;SDS011;10516;51.518;9.864;2022-08-01T12:50:18;0.85;;;0.85;;
20709;SDS011;10516;51.518;9.864;2022-08-01T12:52:45;1.70;;;1.60;;
20709;SDS011;10516;51.518;9.864;2022-08-01T12:55:13;2.40;;;1.40;;
20709;SDS011;10516;51.518;9.864;2022-08-01T12:57:41;1.98;;;1.20;;
20709;SDS011;10516;51.518;9.864;2022-08-01T13:02:35;2.40;;;1.50;;
20709;SDS011;10516;51.518;9.864;2022-08-01T13:05:01;0.90;;;0.90;;
20709;SDS011;10516;51.518;9.864;2022-08-01T13:10:07;1.20;;;1.08;;
20709;SDS011;10516;51.518;9.864;2022-08-01T13:12:33;1.33;;;1.23;;
20709;SDS011;10516;51.518;9.864;2022-08-01T13:14:59;2.00;;;1.27;;
20709;SDS011;10516;51.518;9.864;2022-08-01T13:17:31;1.10;;;1.10;;
20709;SDS011;10516;51.518;9.864;2022-08-01T13:20:05;1.30;;;1.20;;
20709;SDS011;10516;51.518;9.864;2022-08-01T13:22:34;0.90;;;0.90;;
20709;SDS011;10516;51.518;9.864;2022-08-01T13:25:11;1.50;;;1.17;;
20709;SDS011;10516;51.518;9.864;2022-08-01T13:27:40;0.98;;;0.88;;
20709;SDS011;10516;51.518;9.864;2022-08-01T13:30:24;2.75;;;1.20;;
20709;SDS011;10516;51.518;9.864;2022-08-01T13:32:57;1.45;;;0.90;;
20709;SDS011;10516;51.518;9.864;2022-08-01T13:35:23;1.30;;;1.20;;
20709;SDS011;10516;51.518;9.864;2022-08-01T13:37:49;1.42;;;0.95;;
20709;SDS011;10516;51.518;9.864;2022-08-01T13:40:22;0.95;;;0.95;;
20709;SDS011;10516;51.518;9.864;2022-08-01T13:42:47;3.00;;;1.15;;
20709;SDS011;10516;51.518;9.864;2022-08-01T13:45:14;1.35;;;1.20;;
20709;SDS011;10516;51.518;9.864;2022-08-01T13:47:39;1.13;;;1.13;;
20709;SDS011;10516;51.518;9.864;2022-08-01T13:50:06;0.82;;;0.80;;
20709;SDS011;10516;51.518;9.864;2022-08-01T13:52:31;1.00;;;1.00;;
20709;SDS011;10516;51.518;9.864;2022-08-01T13:54:57;1.92;;;1.10;;
20709;SDS011;10516;51.518;9.864;2022-08-01T13:57:22;1.70;;;1.52;;
20709;SDS011;10516;51.518;9.864;2022-08-01T13:59:48;0.90;;;0.82;;
20709;SDS011;10516;51.518;9.864;2022-08-01T14:02:13;1.33;;;1.23;;
20709;SDS011;10516;51.518;9.864;2022-08-01T14:04:39;2.80;;;1.30;;
20709;SDS011;10516;51.518;9.864;2022-08-01T14:07:04;2.60;;;1.52;;
20709;SDS011;10516;51.518;9.864;2022-08-01T14:09:30;1.55;;;1.15;;
20709;SDS011;10516;51.518;9.864;2022-08-01T14:11:55;0.93;;;0.80;;
20709;SDS011;10516;51.518;9.864;2022-08-01T14:14:21;4.78;;;1.00;;
20709;SDS011;10516;51.518;9.864;2022-08-01T14:16:58;1.38;;;1.10;;
20709;SDS011;10516;51.518;9.864;2022-08-01T14:19:24;1.00;;;1.00;;
20709;SDS011;10516;51.518;9.864;2022-08-01T14:21:49;3.63;;;1.20;;
20709;SDS011;10516;51.518;9.864;2022-08-01T14:24:17;1.33;;;1.30;;
20709;SDS011;10516;51.518;9.864;2022-08-01T14:26:42;1.02;;;0.98;;
20709;SDS011;10516;51.518;9.864;2022-08-01T14:29:08;3.75;;;0.80;;
20709;SDS011;10516;51.518;9.864;2022-08-01T14:31:33;0.73;;;0.73;;
20709;SDS011;10516;51.518;9.864;2022-08-01T14:33:59;1.75;;;1.00;;
20709;SDS011;10516;51.518;9.864;2022-08-01T14:36:24;0.90;;;0.60;;
20709;SDS011;10516;51.518;9.864;2022-08-01T14:38:52;0.50;;;0.50;;
20709;SDS011;10516;51.518;9.864;2022-08-01T14:41:17;1.10;;;1.00;;
20709;SDS011;10516;51.518;9.864;2022-08-01T14:43:43;0.80;;;0.80;;
20709;SDS011;10516;51.518;9.864;2022-08-01T14:46:08;1.17;;;1.00;;
20709;SDS011;10516;51.518;9.864;2022-08-01T14:48:34;0.75;;;0.68;;
20709;SDS011;10516;51.518;9.864;2022-08-01T14:51:00;1.10;;;0.60;;
20709;SDS011;10516;51.518;9.864;2022-08-01T14:53:29;0.50;;;0.50;;
20709;SDS011;10516;51.518;9.864;2022-08-01T14:55:55;0.75;;;0.57;;
20709;SDS011;10516;51.518;9.864;2022-08-01T14:58:20;6.82;;;0.68;;
20709;SDS011;10516;51.518;9.864;2022-08-01T15:00:46;0.47;;;0.47;;
20709;SDS011;10516;51.518;9.864;2022-08-01T15:03:11;0.30;;;0.30;;
20709;SDS011;10516;51.518;9.864;2022-08-01T15:05:37;1.20;;;1.15;;
20709;SDS011;10516;51.518;9.864;2022-08-01T15:08:03;0.82;;;0.50;;
20709;SDS011;10516;51.518;9.864;2022-08-01T15:10:30;0.63;;;0.63;;
20709;SDS011;10516;51.518;9.864;2022-08-01T15:12:57;0.40;;;0.40;;
20709;SDS011;10516;51.518;9.864;2022-08-01T15:15:24;0.63;;;0.63;;
20709;SDS011;10516;51.518;9.864;2022-08-01T15:17:50;1.13;;;0.73;;
20709;SDS011;10516;51.518;9.864;2022-08-01T15:20:17;0.95;;;0.80;;
20709;SDS011;10516;51.518;9.864;2022-08-01T15:22:43;2.20;;;0.60;;
20709;SDS011;10516;51.518;9.864;2022-08-01T15:25:08;0.68;;;0.68;;
20709;SDS011;10516;51.518;9.864;2022-08-01T15:27:34;0.55;;;0.55;;
20709;SDS011;10516;51.518;9.864;2022-08-01T15:30:00;1.15;;;0.77;;
20709;SDS011;10516;51.518;9.864;2022-08-01T15:32:25;1.15;;;0.45;;
20709;SDS011;10516;51.518;9.864;2022-08-01T15:34:51;0.90;;;0.90;;
20709;SDS011;10516;51.518;9.864;2022-08-01T15:37:16;1.92;;;0.75;;
20709;SDS011;10516;51.518;9.864;2022-08-01T15:39:42;0.70;;;0.70;;
20709;SDS011;10516;51.518;9.864;2022-08-01T15:42:09;1.50;;;0.80;;
20709;SDS011;10516;51.518;9.864;2022-08-01T15:44:45;0.75;;;0.75;;
20709;SDS011;10516;51.518;9.864;2022-08-01T15:47:11;3.60;;;1.05;;
20709;SDS011;10516;51.518;9.864;2022-08-01T15:49:38;1.85;;;1.75;;
20709;SDS011;10516;51.518;9.864;2022-08-01T15:52:04;1.77;;;1.67;;
20709;SDS011;10516;51.518;9.864;2022-08-01T15:54:30;6.10;;;1.70;;
20709;SDS011;10516;51.518;9.864;2022-08-01T15:56:56;2.95;;;1.27;;
20709;SDS011;10516;51.518;9.864;2022-08-01T15:59:21;1.80;;;1.70;;
20709;SDS011;10516;51.518;9.864;2022-08-01T16:01:47;1.33;;;1.20;;
20709;SDS011;10516;51.518;9.864;2022-08-01T16:04:14;1.88;;;1.77;;